createdAt,value
2022-11-13T00:01:11.097Z,66.10
2022-11-13T00:03:37.983Z,33.83
2022-11-13T00:06:05.029Z,45.17
2022-11-13T00:08:31.616Z,29.60
2022-11-13T00:11:12.832Z,22.40
2022-11-13T00:13:40.001Z,34.37
2022-11-13T00:16:09.670Z,54.13
2022-11-13T00:18:36.562Z,28.57
2022-11-13T00:21:07.176Z,87.50
2022-11-13T00:23:34.991Z,30.70
2022-11-13T00:26:09.465Z,27.50
2022-11-13T00:28:36.026Z,26.57
2022-11-13T00:31:04.200Z,23.13
2022-11-13T00:33:59.770Z,35.00
2022-11-13T00:36:27.911Z,53.63
2022-11-13T00:38:55.274Z,22.13
2022-11-13T00:41:22.586Z,22.37
2022-11-13T00:43:49.153Z,30.03
2022-11-13T00:46:15.622Z,25.27
2022-11-13T00:48:42.121Z,22.70
2022-11-13T00:51:08.723Z,28.83
2022-11-13T00:53:35.454Z,25.23
2022-11-13T00:56:02.186Z,28.00
2022-11-13T00:58:29.182Z,19.80
2022-11-13T01:00:55.747Z,24.10
2022-11-13T01:03:22.500Z,24.73
2022-11-13T01:05:49.703Z,23.40
2022-11-13T01:08:16.699Z,32.47
2022-11-13T01:10:53.023Z,27.97
2022-11-13T01:13:20.739Z,25.70
2022-11-13T01:15:47.211Z,22.60
2022-11-13T01:18:13.680Z,24.53
2022-11-13T01:20:41.012Z,25.77
2022-11-13T01:23:07.655Z,29.17
2022-11-13T01:25:34.168Z,25.40
2022-11-13T01:28:00.642Z,31.13
2022-11-13T01:30:27.169Z,22.70
2022-11-13T01:32:53.607Z,23.53
2022-11-13T01:35:20.445Z,27.67
2022-11-13T01:37:46.977Z,22.50
2022-11-13T01:40:14.339Z,28.83
2022-11-13T01:42:41.007Z,23.67
2022-11-13T01:45:45.230Z,26.60
2022-11-13T01:48:12.490Z,25.03
2022-11-13T01:50:39.237Z,22.43
2022-11-13T01:53:06.305Z,35.30
2022-11-13T01:55:32.911Z,29.30
2022-11-13T01:57:59.998Z,26.10
2022-11-13T02:00:26.786Z,30.13
2022-11-13T02:02:53.238Z,27.33
2022-11-13T02:05:19.921Z,27.60
2022-11-13T02:07:46.795Z,39.93
2022-11-13T02:10:13.578Z,29.47
2022-11-13T02:12:43.587Z,36.30
2022-11-13T02:15:10.655Z,36.70
2022-11-13T02:17:43.960Z,39.43
2022-11-13T02:20:10.763Z,35.90
2022-11-13T02:23:36.371Z,41.30
2022-11-13T02:26:03.488Z,31.07
2022-11-13T02:28:30.420Z,26.70
2022-11-13T02:30:57.310Z,62.40
2022-11-13T02:33:31.817Z,35.97
2022-11-13T02:35:58.656Z,27.70
2022-11-13T02:38:25.277Z,19.07
2022-11-13T02:40:52.091Z,20.43
2022-11-13T02:43:18.532Z,23.57
2022-11-13T02:45:45.038Z,23.20
2022-11-13T02:48:11.477Z,50.07
2022-11-13T02:50:38.376Z,27.47
2022-11-13T02:53:05.162Z,28.60
2022-11-13T02:55:31.749Z,80.70
2022-11-13T02:57:58.326Z,67.83
2022-11-13T03:00:24.878Z,55.10
2022-11-13T03:02:51.373Z,35.13
2022-11-13T03:05:17.930Z,33.20
2022-11-13T03:07:44.397Z,22.70
2022-11-13T03:10:11.419Z,25.93
2022-11-13T03:12:38.277Z,26.80
2022-11-13T03:15:05.845Z,42.17
2022-11-13T03:17:32.689Z,48.73
2022-11-13T03:19:59.582Z,24.90
2022-11-13T03:22:26.679Z,40.57
2022-11-13T03:24:53.129Z,32.43
2022-11-13T03:27:20.115Z,76.20
2022-11-13T03:29:46.555Z,31.70
2022-11-13T03:32:13.079Z,29.53
2022-11-13T03:34:39.577Z,48.00
2022-11-13T03:37:06.131Z,30.53
2022-11-13T03:39:32.648Z,30.90
2022-11-13T03:41:59.165Z,22.40
2022-11-13T03:44:25.609Z,78.60
2022-11-13T03:46:52.075Z,28.37
2022-11-13T03:49:18.618Z,31.20
2022-11-13T03:51:45.078Z,62.77
2022-11-13T03:54:11.639Z,38.33
2022-11-13T03:56:38.094Z,21.80
2022-11-13T03:59:04.592Z,101.53
2022-11-13T04:01:31.067Z,26.57
2022-11-13T04:03:57.627Z,22.30
2022-11-13T04:06:24.368Z,27.70
2022-11-13T04:08:50.892Z,60.70
2022-11-13T04:11:17.538Z,29.20
2022-11-13T04:13:44.310Z,21.87
2022-11-13T04:16:10.847Z,23.37
2022-11-13T04:18:37.289Z,67.87
2022-11-13T04:21:05.336Z,27.10
2022-11-13T04:23:32.314Z,25.70
2022-11-13T04:25:59.090Z,23.00
2022-11-13T04:28:25.637Z,24.57
2022-11-13T04:30:55.552Z,38.87
2022-11-13T04:33:22.381Z,27.57
2022-11-13T04:35:48.893Z,23.60
2022-11-13T04:38:15.518Z,25.90
2022-11-13T04:40:42.322Z,19.70
2022-11-13T04:43:08.792Z,21.07
2022-11-13T04:45:35.997Z,28.33
2022-11-13T04:48:02.507Z,19.67
2022-11-13T04:50:29.047Z,20.10
2022-11-13T04:52:55.530Z,23.17
2022-11-13T04:55:22.011Z,21.53
2022-11-13T04:57:51.637Z,20.70
2022-11-13T05:00:18.466Z,26.43
2022-11-13T05:02:44.945Z,26.43
2022-11-13T05:05:11.517Z,20.80
2022-11-13T05:07:38.009Z,20.50
2022-11-13T05:10:05.314Z,19.13
2022-11-13T05:12:31.803Z,19.33
2022-11-13T05:14:58.241Z,20.00
2022-11-13T05:17:24.744Z,21.07
2022-11-13T05:19:51.257Z,15.83
2022-11-13T05:22:17.771Z,21.63
2022-11-13T05:24:44.327Z,18.17
2022-11-13T05:27:16.901Z,22.50
2022-11-13T05:29:43.927Z,22.83
2022-11-13T05:32:10.499Z,23.47
2022-11-13T05:34:37.246Z,19.20
2022-11-13T05:37:03.731Z,17.07
2022-11-13T05:39:30.282Z,17.13
2022-11-13T05:41:56.720Z,84.97
2022-11-13T05:44:23.163Z,107.07
2022-11-13T05:46:49.668Z,116.60
2022-11-13T05:49:16.205Z,33.00
2022-11-13T05:51:42.650Z,86.37
2022-11-13T05:54:09.155Z,18.80
2022-11-13T05:56:36.715Z,17.80
2022-11-13T05:59:04.615Z,18.47
2022-11-13T06:01:32.681Z,19.07
2022-11-13T06:04:00.693Z,22.43
2022-11-13T06:06:28.552Z,25.00
2022-11-13T06:08:56.590Z,29.80
2022-11-13T06:11:24.784Z,52.73
2022-11-13T06:13:52.668Z,45.83
2022-11-13T06:16:21.653Z,34.57
2022-11-13T06:18:49.097Z,24.83
2022-11-13T06:21:21.075Z,24.47
2022-11-13T06:23:48.098Z,25.10
2022-11-13T06:26:17.145Z,38.90
2022-11-13T06:28:44.174Z,35.07
2022-11-13T06:31:13.017Z,31.10
2022-11-13T06:33:40.566Z,41.17
2022-11-13T06:36:10.786Z,39.43
2022-11-13T06:38:38.562Z,34.50
2022-11-13T06:41:05.898Z,30.20
2022-11-13T06:43:32.724Z,28.80
2022-11-13T06:46:02.722Z,30.23
2022-11-13T06:48:29.499Z,28.30
2022-11-13T06:51:00.807Z,24.90
2022-11-13T06:53:27.300Z,46.83
2022-11-13T06:55:53.936Z,26.03
2022-11-13T06:58:20.371Z,36.83
2022-11-13T07:00:47.631Z,59.77
2022-11-13T07:03:18.984Z,31.43
2022-11-13T07:05:45.853Z,41.50
2022-11-13T07:08:12.727Z,42.70
2022-11-13T07:10:39.777Z,32.70
2022-11-13T07:13:06.822Z,35.13
2022-11-13T07:15:35.088Z,42.13
2022-11-13T07:18:02.060Z,40.83
2022-11-13T07:20:29.521Z,44.33
2022-11-13T07:23:00.495Z,25.63
2022-11-13T07:25:28.052Z,32.53
2022-11-13T07:27:54.559Z,32.93
2022-11-13T07:30:21.569Z,24.20
2022-11-13T07:32:48.009Z,34.37
2022-11-13T07:35:15.202Z,29.33
2022-11-13T07:37:41.744Z,33.63
2022-11-13T07:40:09.352Z,34.50
2022-11-13T07:42:36.045Z,29.07
2022-11-13T07:45:02.593Z,36.83
2022-11-13T07:47:29.174Z,31.97
2022-11-13T07:50:03.436Z,36.30
2022-11-13T07:52:33.392Z,33.77
2022-11-13T07:54:59.844Z,32.13
2022-11-13T07:57:27.333Z,50.27
2022-11-13T07:59:53.821Z,40.33
2022-11-13T08:02:25.233Z,44.43
2022-11-13T08:04:53.846Z,36.13
2022-11-13T08:07:20.424Z,33.50
2022-11-13T08:09:46.944Z,25.97
2022-11-13T08:12:13.431Z,36.17
2022-11-13T08:14:39.909Z,26.20
2022-11-13T08:17:06.386Z,17.10
2022-11-13T08:19:32.845Z,26.63
2022-11-13T08:21:59.293Z,14.70
2022-11-13T08:24:25.775Z,12.47
2022-11-13T08:26:52.227Z,9.90
2022-11-13T08:29:18.739Z,16.03
2022-11-13T08:31:45.275Z,9.13
2022-11-13T08:34:11.734Z,14.80
2022-11-13T08:36:38.343Z,9.70
2022-11-13T08:39:04.843Z,12.80
2022-11-13T08:41:31.278Z,8.90
2022-11-13T08:43:57.770Z,8.00
2022-11-13T08:46:24.312Z,12.80
2022-11-13T08:48:50.848Z,13.07
2022-11-13T08:51:18.203Z,18.73
2022-11-13T08:53:44.653Z,10.57
2022-11-13T08:56:11.117Z,12.60
2022-11-13T08:58:37.692Z,10.73
2022-11-13T09:01:04.624Z,24.43
2022-11-13T09:03:31.291Z,11.10
2022-11-13T09:05:57.780Z,11.47
2022-11-13T09:08:24.300Z,13.30
2022-11-13T09:10:50.886Z,11.70
2022-11-13T09:13:17.543Z,9.93
2022-11-13T09:15:44.287Z,6.97
2022-11-13T09:18:10.786Z,16.00
2022-11-13T09:20:37.280Z,9.50
2022-11-13T09:23:06.138Z,12.50
2022-11-13T09:25:37.576Z,6.93
2022-11-13T09:28:04.994Z,7.60
2022-11-13T09:30:31.438Z,13.23
2022-11-13T09:33:00.188Z,10.37
2022-11-13T09:35:36.750Z,12.03
2022-11-13T09:38:11.974Z,11.47
2022-11-13T09:40:55.235Z,8.30
2022-11-13T09:43:27.460Z,9.03
2022-11-13T09:45:57.720Z,9.37
2022-11-13T09:48:35.816Z,11.50
2022-11-13T09:51:07.242Z,13.17
2022-11-13T09:53:36.121Z,9.40
2022-11-13T09:56:13.200Z,12.27
2022-11-13T09:58:50.337Z,6.10
2022-11-13T10:01:24.647Z,5.63
2022-11-13T10:04:03.422Z,5.90
2022-11-13T10:07:00.978Z,10.67
2022-11-13T10:09:33.560Z,19.13
2022-11-13T10:12:03.390Z,5.73
2022-11-13T10:14:35.503Z,12.63
2022-11-13T10:17:09.904Z,9.30
2022-11-13T10:19:44.682Z,13.13
2022-11-13T10:22:33.000Z,15.63
2022-11-13T10:25:10.230Z,10.43
2022-11-13T10:27:36.725Z,13.90
2022-11-13T10:30:04.187Z,10.30
2022-11-13T10:32:33.227Z,8.30
2022-11-13T10:35:07.755Z,14.03
2022-11-13T10:37:49.566Z,11.10
2022-11-13T10:40:34.122Z,11.93
2022-11-13T10:43:18.246Z,14.83
2022-11-13T10:46:04.831Z,10.80
2022-11-13T10:48:36.052Z,12.03
2022-11-13T10:51:30.558Z,5.73
2022-11-13T10:53:58.385Z,10.60
2022-11-13T10:56:35.352Z,8.67
2022-11-13T10:59:12.320Z,12.50
2022-11-13T11:01:39.660Z,10.30
2022-11-13T11:04:08.238Z,16.53
2022-11-13T11:09:31.295Z,6.47
2022-11-13T11:12:27.187Z,10.30
2022-11-13T11:14:56.934Z,18.13
2022-11-13T11:17:31.370Z,11.00
2022-11-13T11:20:05.255Z,19.33
2022-11-13T11:22:34.006Z,13.53
2022-11-13T11:25:18.026Z,9.30
2022-11-13T11:27:52.455Z,15.27
2022-11-13T11:30:22.056Z,15.33
2022-11-13T11:32:57.527Z,8.60
2022-11-13T11:35:28.301Z,11.10
2022-11-13T11:38:15.621Z,13.23
2022-11-13T11:40:48.324Z,9.97
2022-11-13T11:43:38.158Z,11.90
2022-11-13T11:46:04.903Z,10.40
2022-11-13T11:48:32.652Z,8.30
2022-11-13T11:51:23.914Z,7.37
2022-11-13T11:53:53.267Z,8.53
2022-11-13T11:56:40.414Z,10.30
2022-11-13T11:59:32.523Z,5.60
2022-11-13T12:02:40.133Z,8.63
2022-11-13T12:05:30.355Z,5.43
2022-11-13T12:08:21.790Z,9.73
2022-11-13T12:10:59.202Z,6.00
2022-11-13T12:13:29.276Z,8.97
2022-11-13T12:16:03.792Z,7.30
2022-11-13T12:18:36.207Z,6.00
2022-11-13T12:21:21.444Z,5.63
2022-11-13T12:24:03.357Z,6.37
2022-11-13T12:26:37.792Z,11.20
2022-11-13T12:29:23.170Z,10.07
2022-11-13T12:32:11.276Z,7.60
2022-11-13T12:34:46.152Z,11.73
2022-11-13T12:37:17.663Z,7.73
2022-11-13T12:40:03.730Z,10.77
2022-11-13T12:42:48.703Z,7.60
2022-11-13T12:45:25.473Z,15.50
2022-11-13T12:47:52.298Z,15.20
2022-11-13T12:50:39.005Z,8.97
2022-11-13T12:53:10.126Z,6.97
2022-11-13T12:55:40.796Z,3.60
2022-11-13T12:58:21.835Z,12.27
2022-11-13T13:01:15.850Z,8.33
2022-11-13T13:04:07.292Z,10.53
2022-11-13T13:07:11.525Z,5.83
2022-11-13T13:10:11.278Z,13.83
2022-11-13T13:12:59.598Z,9.43
2022-11-13T13:15:38.073Z,6.60
2022-11-13T13:18:17.872Z,6.70
2022-11-13T13:21:06.519Z,8.70
2022-11-13T13:23:36.531Z,6.07
2022-11-13T13:26:27.466Z,10.00
2022-11-13T13:28:55.824Z,11.33
2022-11-13T13:32:11.596Z,16.40
2022-11-13T13:35:16.612Z,10.40
2022-11-13T13:38:12.374Z,10.83
2022-11-13T13:40:49.985Z,12.00
2022-11-13T13:43:30.764Z,8.30
2022-11-13T13:46:03.387Z,7.17
2022-11-13T13:48:30.950Z,9.23
2022-11-13T13:50:59.482Z,8.83
2022-11-13T13:53:29.161Z,7.73
2022-11-13T13:55:56.619Z,11.53
2022-11-13T13:58:30.117Z,7.63
2022-11-13T14:01:17.729Z,11.47
2022-11-13T14:03:45.170Z,6.83
2022-11-13T14:06:14.581Z,12.00
2022-11-13T14:08:41.094Z,12.00
2022-11-13T14:11:32.190Z,12.27
2022-11-13T14:14:19.651Z,13.07
2022-11-13T14:16:50.321Z,9.03
2022-11-13T14:19:17.434Z,15.57
2022-11-13T14:21:51.874Z,10.33
2022-11-13T14:24:24.424Z,8.97
2022-11-13T14:26:53.056Z,8.57
2022-11-13T14:29:23.661Z,7.37
2022-11-13T14:31:51.022Z,8.53
2022-11-13T14:34:20.111Z,9.40
2022-11-13T14:36:48.666Z,13.63
2022-11-13T14:39:24.956Z,14.40
2022-11-13T14:41:54.836Z,13.47
2022-11-13T14:44:31.973Z,13.27
2022-11-13T14:47:01.194Z,13.83
2022-11-13T14:49:33.437Z,6.60
2022-11-13T14:52:01.352Z,11.23
2022-11-13T14:55:00.047Z,9.17
2022-11-13T14:57:21.222Z,10.73
2022-11-13T14:59:47.732Z,11.67
2022-11-13T15:02:14.288Z,17.60
2022-11-13T15:04:41.004Z,8.23
2022-11-13T15:07:29.268Z,14.57
2022-11-13T15:09:56.509Z,9.60
2022-11-13T15:12:23.099Z,16.43
2022-11-13T15:14:49.707Z,14.80
2022-11-13T15:17:18.383Z,9.90
2022-11-13T15:19:46.423Z,11.80
2022-11-13T15:22:26.629Z,12.50
2022-11-13T15:24:54.394Z,11.70
2022-11-13T15:27:20.891Z,11.73
2022-11-13T15:29:47.534Z,10.43
2022-11-13T15:32:14.594Z,9.03
2022-11-13T15:34:41.244Z,8.50
2022-11-13T15:37:15.508Z,7.90
2022-11-13T15:39:42.286Z,15.23
2022-11-13T15:42:13.348Z,16.00
2022-11-13T15:44:40.861Z,7.40
2022-11-13T15:47:25.621Z,9.10
2022-11-13T15:50:12.253Z,16.37
2022-11-13T15:52:41.479Z,14.00
2022-11-13T15:55:25.698Z,16.50
2022-11-13T15:57:52.512Z,9.00
2022-11-13T16:00:24.730Z,7.10
2022-11-13T16:02:54.914Z,25.23
2022-11-13T16:05:25.150Z,15.40
2022-11-13T16:07:55.368Z,16.73
2022-11-13T16:10:24.806Z,11.13
2022-11-13T16:12:52.741Z,12.13
2022-11-13T16:15:19.734Z,7.60
2022-11-13T16:17:48.902Z,16.00
2022-11-13T16:20:17.127Z,23.53
2022-11-13T16:22:44.416Z,16.13
2022-11-13T16:25:13.272Z,8.60
2022-11-13T16:27:39.910Z,11.07
2022-11-13T16:30:28.438Z,13.20
2022-11-13T16:32:54.997Z,8.83
2022-11-13T16:35:21.506Z,6.73
2022-11-13T16:37:48.119Z,12.00
2022-11-13T16:40:21.144Z,11.50
2022-11-13T16:42:48.091Z,9.60
2022-11-13T16:45:14.655Z,8.87
2022-11-13T16:47:41.152Z,8.37
2022-11-13T16:50:19.607Z,10.77
2022-11-13T16:52:46.192Z,17.13
2022-11-13T16:55:13.201Z,7.07
2022-11-13T16:57:40.197Z,19.43
2022-11-13T17:00:08.427Z,9.63
2022-11-13T17:02:34.919Z,9.97
2022-11-13T17:05:01.453Z,9.80
2022-11-13T17:07:27.967Z,11.40
2022-11-13T17:10:16.620Z,14.13
2022-11-13T17:12:41.421Z,11.83
2022-11-13T17:15:08.797Z,11.37
2022-11-13T17:17:35.501Z,11.97
2022-11-13T17:20:02.168Z,13.23
2022-11-13T17:22:33.640Z,17.60
2022-11-13T17:25:00.220Z,16.67
2022-11-13T17:27:29.736Z,13.33
2022-11-13T17:29:56.300Z,11.13
2022-11-13T17:32:22.923Z,12.70
2022-11-13T17:34:49.421Z,11.63
2022-11-13T17:37:16.270Z,8.37
2022-11-13T17:39:42.721Z,10.63
2022-11-13T17:42:09.216Z,12.70
2022-11-13T17:44:35.684Z,17.73
2022-11-13T17:47:02.141Z,10.47
2022-11-13T17:49:29.011Z,15.30
2022-11-13T17:51:55.579Z,20.20
2022-11-13T17:54:22.102Z,12.73
2022-11-13T17:56:48.676Z,5.70
2022-11-13T17:59:15.242Z,11.53
2022-11-13T18:01:41.732Z,12.23
2022-11-13T18:04:08.227Z,10.67
2022-11-13T18:06:34.721Z,13.73
2022-11-13T18:09:01.260Z,12.50
2022-11-13T18:11:28.875Z,11.70
2022-11-13T18:13:55.779Z,5.80
2022-11-13T18:16:34.647Z,7.33
2022-11-13T18:19:03.460Z,10.47
2022-11-13T18:21:32.029Z,16.50
2022-11-13T18:23:59.868Z,15.63
2022-11-13T18:26:27.491Z,15.30
2022-11-13T18:28:54.307Z,8.60
2022-11-13T18:31:21.850Z,8.60
2022-11-13T18:33:48.673Z,7.77
2022-11-13T18:36:15.650Z,9.53
2022-11-13T18:38:43.461Z,12.90
2022-11-13T18:41:18.130Z,22.80
2022-11-13T18:43:46.026Z,10.40
2022-11-13T18:46:13.919Z,6.57
2022-11-13T18:48:41.821Z,11.03
2022-11-13T18:51:12.680Z,16.53
2022-11-13T18:53:39.549Z,11.50
2022-11-13T18:56:08.656Z,12.00
2022-11-13T18:58:39.573Z,11.53
2022-11-13T19:01:24.891Z,11.97
2022-11-13T19:04:21.035Z,15.17
2022-11-13T19:06:39.507Z,17.57
2022-11-13T19:09:13.972Z,12.70
2022-11-13T19:11:40.778Z,14.50
2022-11-13T19:14:08.017Z,12.10
2022-11-13T19:16:36.609Z,13.50
2022-11-13T19:19:05.744Z,12.33
2022-11-13T19:21:33.541Z,16.07
2022-11-13T19:24:01.441Z,15.93
2022-11-13T19:26:28.625Z,14.43
2022-11-13T19:28:55.843Z,12.07
2022-11-13T19:31:24.458Z,12.70
2022-11-13T19:33:58.933Z,12.17
2022-11-13T19:36:28.137Z,12.37
2022-11-13T19:38:55.447Z,18.43
2022-11-13T19:41:22.446Z,9.10
2022-11-13T19:43:49.035Z,9.87
2022-11-13T19:46:16.956Z,10.43
2022-11-13T19:48:45.292Z,10.23
2022-11-13T19:51:20.410Z,11.70
2022-11-13T19:53:47.293Z,12.43
2022-11-13T19:56:15.799Z,9.80
2022-11-13T19:58:44.424Z,11.47
2022-11-13T20:01:12.267Z,15.53
2022-11-13T20:03:39.123Z,16.80
2022-11-13T20:06:06.338Z,12.07
2022-11-13T20:08:35.111Z,7.60
2022-11-13T20:11:10.262Z,10.77
2022-11-13T20:13:38.267Z,10.10
2022-11-13T20:16:06.623Z,14.00
2022-11-13T20:18:33.196Z,12.13
2022-11-13T20:20:59.956Z,8.97
2022-11-13T20:23:26.878Z,8.37
2022-11-13T20:26:00.001Z,17.60
2022-11-13T20:28:30.922Z,11.40
2022-11-13T20:31:12.254Z,8.37
2022-11-13T20:33:38.803Z,11.00
2022-11-13T20:36:05.901Z,17.77
2022-11-13T20:38:32.613Z,13.00
2022-11-13T20:41:04.475Z,12.23
2022-11-13T20:43:31.178Z,9.40
2022-11-13T20:46:05.327Z,16.33
2022-11-13T20:48:32.040Z,12.13
2022-11-13T20:51:14.527Z,19.60
2022-11-13T20:53:41.452Z,12.10
2022-11-13T20:56:08.413Z,14.77
2022-11-13T20:58:35.440Z,13.40
2022-11-13T21:01:16.972Z,10.63
2022-11-13T21:03:44.699Z,14.47
2022-11-13T21:06:13.486Z,11.30
2022-11-13T21:08:40.228Z,12.53
2022-11-13T21:11:07.498Z,17.23
2022-11-13T21:13:34.387Z,14.67
2022-11-13T21:16:09.987Z,8.27
2022-11-13T21:18:36.983Z,6.53
2022-11-13T21:21:08.665Z,11.43
2022-11-13T21:23:35.249Z,14.83
2022-11-13T21:26:02.910Z,11.13
2022-11-13T21:28:33.654Z,15.70
2022-11-13T21:31:10.470Z,8.97
2022-11-13T21:33:41.787Z,17.23
2022-11-13T21:36:11.339Z,12.80
2022-11-13T21:38:38.219Z,8.87
2022-11-13T21:41:21.926Z,11.03
2022-11-13T21:43:49.871Z,9.10
2022-11-13T21:46:17.351Z,14.00
2022-11-13T21:48:47.705Z,13.07
2022-11-13T21:51:14.198Z,14.53
2022-11-13T21:53:42.801Z,17.57
2022-11-13T21:56:15.231Z,10.80
2022-11-13T21:58:42.325Z,6.70
2022-11-13T22:01:11.124Z,8.27
2022-11-13T22:03:37.855Z,10.10
2022-11-13T22:06:13.491Z,11.20
2022-11-13T22:08:40.004Z,10.13
2022-11-13T22:11:06.950Z,7.30
2022-11-13T22:13:33.690Z,5.53
2022-11-13T22:16:03.207Z,11.37
2022-11-13T22:18:30.000Z,10.83
2022-11-13T22:21:09.067Z,10.47
2022-11-13T22:23:36.056Z,7.10
2022-11-13T22:26:04.822Z,7.87
2022-11-13T22:28:35.976Z,10.17
2022-11-13T22:31:02.874Z,7.37
2022-11-13T22:33:30.812Z,10.60
2022-11-13T22:36:05.478Z,8.50
2022-11-13T22:38:33.531Z,13.27
2022-11-13T22:41:06.780Z,6.43
2022-11-13T22:43:38.274Z,11.67
2022-11-13T22:46:06.662Z,7.57
2022-11-13T22:48:34.802Z,6.80
2022-11-13T22:51:25.765Z,14.57
2022-11-13T22:53:57.484Z,10.37
2022-11-13T22:56:25.723Z,12.83
2022-11-13T22:58:53.878Z,10.93
2022-11-13T23:01:28.829Z,13.90
2022-11-13T23:03:57.853Z,11.30
2022-11-13T23:06:26.490Z,12.90
2022-11-13T23:08:53.573Z,13.07
2022-11-13T23:11:28.556Z,16.67
2022-11-13T23:13:56.674Z,10.27
2022-11-13T23:16:24.737Z,17.47
2022-11-13T23:18:51.986Z,9.30
2022-11-13T23:21:18.691Z,13.13
2022-11-13T23:23:45.590Z,6.60
2022-11-13T23:26:13.369Z,10.93
2022-11-13T23:28:40.274Z,6.93
2022-11-13T23:31:07.587Z,8.70
2022-11-13T23:33:34.521Z,15.53
2022-11-13T23:36:01.213Z,9.97
2022-11-13T23:38:28.087Z,10.17
2022-11-13T23:40:56.067Z,12.23
2022-11-13T23:43:23.540Z,13.63
2022-11-13T23:45:51.806Z,9.70
2022-11-13T23:48:18.680Z,14.03
2022-11-13T23:50:45.669Z,12.97
2022-11-13T23:53:12.601Z,12.00
2022-11-13T23:55:39.886Z,11.53
2022-11-13T23:58:09.796Z,9.93
